createdAt,value
2023-04-26T00:00:30.471Z,1005.42
2023-04-26T00:01:30.320Z,1005.42
2023-04-26T00:02:30.450Z,1005.42
2023-04-26T00:03:30.401Z,1005.42
2023-04-26T00:04:30.421Z,1005.42
2023-04-26T00:05:30.325Z,1005.42
2023-04-26T00:06:30.287Z,1005.42
2023-04-26T00:07:30.291Z,1005.41
2023-04-26T00:08:30.242Z,1005.42
2023-04-26T00:09:30.237Z,1005.43
2023-04-26T00:10:30.251Z,1005.44
2023-04-26T00:11:30.202Z,1005.45
2023-04-26T00:12:30.245Z,1005.47
2023-04-26T00:13:30.248Z,1005.48
2023-04-26T00:14:30.194Z,1005.51
2023-04-26T00:15:30.199Z,1005.52
2023-04-26T00:16:30.245Z,1005.53
2023-04-26T00:17:30.197Z,1005.53
2023-04-26T00:18:30.203Z,1005.53
2023-04-26T00:19:30.193Z,1005.52
2023-04-26T00:20:30.119Z,1005.53
2023-04-26T00:21:30.110Z,1005.54
2023-04-26T00:22:30.121Z,1005.53
2023-04-26T00:23:30.095Z,1005.53
2023-04-26T00:24:30.117Z,1005.51
2023-04-26T00:25:30.072Z,1005.50
2023-04-26T00:26:30.077Z,1005.47
2023-04-26T00:27:30.059Z,1005.46
2023-04-26T00:28:30.090Z,1005.45
2023-04-26T00:29:30.044Z,1005.45
2023-04-26T00:30:30.039Z,1005.46
2023-04-26T00:31:30.072Z,1005.46
2023-04-26T00:32:30.054Z,1005.47
2023-04-26T00:33:30.006Z,1005.47
2023-04-26T00:34:29.995Z,1005.46
2023-04-26T00:35:29.998Z,1005.46
2023-04-26T00:36:29.968Z,1005.44
2023-04-26T00:37:29.960Z,1005.42
2023-04-26T00:38:29.951Z,1005.40
2023-04-26T00:39:29.980Z,1005.39
2023-04-26T00:40:29.944Z,1005.38
2023-04-26T00:41:29.926Z,1005.38
2023-04-26T00:42:29.926Z,1005.36
2023-04-26T00:43:29.914Z,1005.35
2023-04-26T00:44:29.887Z,1005.35
2023-04-26T00:45:29.932Z,1005.34
2023-04-26T00:46:29.908Z,1005.34
2023-04-26T00:47:29.935Z,1005.34
2023-04-26T00:48:29.858Z,1005.33
2023-04-26T00:49:29.841Z,1005.33
2023-04-26T00:50:29.919Z,1005.33
2023-04-26T00:51:29.801Z,1005.33
2023-04-26T00:52:29.840Z,1005.33
2023-04-26T00:53:29.793Z,1005.33
2023-04-26T00:54:29.805Z,1005.34
2023-04-26T00:55:29.823Z,1005.34
2023-04-26T00:56:29.793Z,1005.33
2023-04-26T00:57:29.761Z,1005.33
2023-04-26T00:58:29.763Z,1005.32
2023-04-26T00:59:29.732Z,1005.31
2023-04-26T01:00:29.810Z,1005.31
2023-04-26T01:01:29.731Z,1005.32
2023-04-26T01:02:29.846Z,1005.32
2023-04-26T01:03:29.790Z,1005.31
2023-04-26T01:04:29.812Z,1005.31
2023-04-26T01:05:29.701Z,1005.31
2023-04-26T01:06:29.725Z,1005.32
2023-04-26T01:07:29.657Z,1005.32
2023-04-26T01:08:29.665Z,1005.33
2023-04-26T01:09:29.663Z,1005.34
2023-04-26T01:10:29.681Z,1005.34
2023-04-26T01:11:29.634Z,1005.33
2023-04-26T01:12:29.678Z,1005.33
2023-04-26T01:13:29.656Z,1005.32
2023-04-26T01:14:29.677Z,1005.33
2023-04-26T01:15:29.603Z,1005.32
2023-04-26T01:16:29.756Z,1005.34
2023-04-26T01:17:29.648Z,1005.35
2023-04-26T01:18:29.658Z,1005.36
2023-04-26T01:19:29.557Z,1005.36
2023-04-26T01:20:29.536Z,1005.37
2023-04-26T01:21:29.561Z,1005.37
2023-04-26T01:22:29.509Z,1005.37
2023-04-26T01:23:29.636Z,1005.37
2023-04-26T01:24:29.589Z,1005.38
2023-04-26T01:25:29.535Z,1005.37
2023-04-26T01:26:29.497Z,1005.37
2023-04-26T01:27:29.522Z,1005.36
2023-04-26T01:28:29.434Z,1005.36
2023-04-26T01:29:29.698Z,1005.35
2023-04-26T01:30:29.477Z,1005.35
2023-04-26T01:31:29.579Z,1005.35
2023-04-26T01:32:29.463Z,1005.34
2023-04-26T01:33:29.431Z,1005.33
2023-04-26T01:34:29.454Z,1005.33
2023-04-26T01:35:29.518Z,1005.34
2023-04-26T01:36:29.440Z,1005.35
2023-04-26T01:37:29.412Z,1005.35
2023-04-26T01:38:29.439Z,1005.35
2023-04-26T01:39:29.530Z,1005.35
2023-04-26T01:40:29.383Z,1005.35
2023-04-26T01:41:29.422Z,1005.35
2023-04-26T01:42:29.357Z,1005.35
2023-04-26T01:43:29.369Z,1005.34
2023-04-26T01:44:29.443Z,1005.34
2023-04-26T01:45:29.400Z,1005.34
2023-04-26T01:46:29.376Z,1005.33
2023-04-26T01:47:29.439Z,1005.33
2023-04-26T01:48:29.592Z,1005.34
2023-04-26T01:49:29.286Z,1005.35
2023-04-26T01:50:29.397Z,1005.34
2023-04-26T01:51:29.238Z,1005.34
2023-04-26T01:52:29.325Z,1005.34
2023-04-26T01:53:29.256Z,1005.33
2023-04-26T01:54:29.202Z,1005.34
2023-04-26T01:55:29.232Z,1005.35
2023-04-26T01:56:29.197Z,1005.35
2023-04-26T01:57:29.176Z,1005.35
2023-04-26T01:58:29.214Z,1005.35
2023-04-26T01:59:29.189Z,1005.36
2023-04-26T02:00:29.135Z,1005.37
2023-04-26T02:01:29.138Z,1005.37
2023-04-26T02:02:29.240Z,1005.36
2023-04-26T02:03:29.181Z,1005.36
2023-04-26T02:04:29.131Z,1005.36
2023-04-26T02:05:29.140Z,1005.36
2023-04-26T02:06:29.060Z,1005.36
2023-04-26T02:07:29.074Z,1005.36
2023-04-26T02:08:29.063Z,1005.36
2023-04-26T02:09:29.061Z,1005.35
2023-04-26T02:10:29.033Z,1005.33
2023-04-26T02:11:29.054Z,1005.33
2023-04-26T02:12:29.002Z,1005.34
2023-04-26T02:13:29.021Z,1005.36
2023-04-26T02:14:29.035Z,1005.39
2023-04-26T02:15:28.987Z,1005.42
2023-04-26T02:16:29.012Z,1005.44
2023-04-26T02:17:28.985Z,1005.44
2023-04-26T02:18:28.957Z,1005.44
2023-04-26T02:19:28.944Z,1005.44
2023-04-26T02:20:28.919Z,1005.43
2023-04-26T02:21:28.912Z,1005.44
2023-04-26T02:22:28.921Z,1005.45
2023-04-26T02:23:28.919Z,1005.47
2023-04-26T02:24:28.871Z,1005.49
2023-04-26T02:25:28.875Z,1005.50
2023-04-26T02:26:28.858Z,1005.49
2023-04-26T02:27:28.848Z,1005.50
2023-04-26T02:28:28.853Z,1005.51
2023-04-26T02:29:42.956Z,1005.52
2023-04-26T02:30:28.816Z,1005.53
2023-04-26T02:31:28.863Z,1005.53
2023-04-26T02:32:28.832Z,1005.53
2023-04-26T02:33:28.822Z,1005.51
2023-04-26T02:34:28.794Z,1005.50
2023-04-26T02:35:28.809Z,1005.49
2023-04-26T02:36:28.753Z,1005.48
2023-04-26T02:37:28.753Z,1005.47
2023-04-26T02:38:28.738Z,1005.47
2023-04-26T02:39:28.767Z,1005.47
2023-04-26T02:40:28.734Z,1005.47
2023-04-26T02:41:28.724Z,1005.47
2023-04-26T02:42:28.699Z,1005.46
2023-04-26T02:43:28.720Z,1005.46
2023-04-26T02:44:28.677Z,1005.45
2023-04-26T02:45:28.705Z,1005.45
2023-04-26T02:46:28.691Z,1005.46
2023-04-26T02:47:28.673Z,1005.47
2023-04-26T02:48:28.656Z,1005.46
2023-04-26T02:49:28.624Z,1005.44
2023-04-26T02:50:28.634Z,1005.42
2023-04-26T02:51:28.629Z,1005.41
2023-04-26T02:52:28.616Z,1005.41
2023-04-26T02:53:28.616Z,1005.41
2023-04-26T02:54:28.561Z,1005.41
2023-04-26T02:55:28.567Z,1005.42
2023-04-26T02:56:28.556Z,1005.43
2023-04-26T02:57:28.543Z,1005.43
2023-04-26T02:58:28.549Z,1005.42
2023-04-26T02:59:28.539Z,1005.42
2023-04-26T03:00:28.552Z,1005.41
2023-04-26T03:01:28.528Z,1005.40
2023-04-26T03:02:28.620Z,1005.39
2023-04-26T03:03:28.710Z,1005.38
2023-04-26T03:04:28.505Z,1005.36
2023-04-26T03:05:28.463Z,1005.37
2023-04-26T03:06:28.455Z,1005.36
2023-04-26T03:07:28.436Z,1005.37
2023-04-26T03:08:28.450Z,1005.38
2023-04-26T03:09:28.422Z,1005.39
2023-04-26T03:10:28.421Z,1005.39
2023-04-26T03:11:28.416Z,1005.40
2023-04-26T03:12:28.393Z,1005.40
2023-04-26T03:13:28.394Z,1005.41
2023-04-26T03:14:28.393Z,1005.41
2023-04-26T03:15:28.396Z,1005.42
2023-04-26T03:16:28.406Z,1005.42
2023-04-26T03:17:28.401Z,1005.42
2023-04-26T03:18:28.401Z,1005.43
2023-04-26T03:19:28.345Z,1005.43
2023-04-26T03:20:28.388Z,1005.43
2023-04-26T03:21:28.329Z,1005.43
2023-04-26T03:22:28.285Z,1005.43
2023-04-26T03:23:28.295Z,1005.42
2023-04-26T03:24:28.269Z,1005.41
2023-04-26T03:25:28.263Z,1005.39
2023-04-26T03:26:28.289Z,1005.38
2023-04-26T03:27:28.400Z,1005.37
2023-04-26T03:28:28.243Z,1005.36
2023-04-26T03:29:28.245Z,1005.36
2023-04-26T03:30:28.211Z,1005.36
2023-04-26T03:31:28.344Z,1005.36
2023-04-26T03:32:28.214Z,1005.37
2023-04-26T03:33:31.000Z,1005.36
2023-04-26T03:34:28.208Z,1005.36
2023-04-26T03:35:28.195Z,1005.35
2023-04-26T03:36:28.156Z,1005.34
2023-04-26T03:37:28.172Z,1005.34
2023-04-26T03:38:28.137Z,1005.33
2023-04-26T03:39:28.091Z,1005.32
2023-04-26T03:40:28.095Z,1005.31
2023-04-26T03:41:28.118Z,1005.31
2023-04-26T03:42:28.089Z,1005.30
2023-04-26T03:43:28.067Z,1005.31
2023-04-26T03:44:29.282Z,1005.31
2023-04-26T03:45:28.029Z,1005.30
2023-04-26T03:46:28.146Z,1005.28
2023-04-26T03:47:28.112Z,1005.26
2023-04-26T03:48:28.000Z,1005.24
2023-04-26T03:49:27.975Z,1005.24
2023-04-26T03:50:27.992Z,1005.24
2023-04-26T03:51:27.962Z,1005.25
2023-04-26T03:52:27.957Z,1005.26
2023-04-26T03:53:27.935Z,1005.27
2023-04-26T03:54:27.933Z,1005.26
2023-04-26T03:55:27.920Z,1005.25
2023-04-26T03:56:27.925Z,1005.25
2023-04-26T03:57:27.898Z,1005.25
2023-04-26T03:58:27.908Z,1005.25
2023-04-26T03:59:27.873Z,1005.25
2023-04-26T04:00:27.882Z,1005.25
2023-04-26T04:01:27.848Z,1005.25
2023-04-26T04:02:28.004Z,1005.26
2023-04-26T04:03:28.052Z,1005.27
2023-04-26T04:04:28.149Z,1005.28
2023-04-26T04:05:27.843Z,1005.29
2023-04-26T04:06:27.790Z,1005.28
2023-04-26T04:07:27.788Z,1005.26
2023-04-26T04:08:27.777Z,1005.26
2023-04-26T04:09:27.783Z,1005.24
2023-04-26T04:10:27.781Z,1005.22
2023-04-26T04:11:27.757Z,1005.21
2023-04-26T04:12:27.753Z,1005.21
2023-04-26T04:13:27.764Z,1005.21
2023-04-26T04:14:27.713Z,1005.21
2023-04-26T04:15:27.714Z,1005.21
2023-04-26T04:16:27.776Z,1005.20
2023-04-26T04:17:27.741Z,1005.19
2023-04-26T04:18:27.695Z,1005.18
2023-04-26T04:19:27.738Z,1005.18
2023-04-26T04:20:27.691Z,1005.19
2023-04-26T04:21:27.731Z,1005.20
2023-04-26T04:22:27.658Z,1005.22
2023-04-26T04:23:27.624Z,1005.24
2023-04-26T04:24:27.634Z,1005.25
2023-04-26T04:25:27.636Z,1005.25
2023-04-26T04:26:27.592Z,1005.26
2023-04-26T04:27:27.597Z,1005.29
2023-04-26T04:28:27.609Z,1005.30
2023-04-26T04:29:27.568Z,1005.31
2023-04-26T04:30:27.574Z,1005.29
2023-04-26T04:31:27.612Z,1005.28
2023-04-26T04:32:27.580Z,1005.26
2023-04-26T04:33:27.544Z,1005.25
2023-04-26T04:34:27.511Z,1005.25
2023-04-26T04:35:27.522Z,1005.25
2023-04-26T04:36:27.509Z,1005.26
2023-04-26T04:37:27.524Z,1005.26
2023-04-26T04:38:27.490Z,1005.26
2023-04-26T04:39:27.469Z,1005.26
2023-04-26T04:40:27.455Z,1005.28
2023-04-26T04:41:27.467Z,1005.30
2023-04-26T04:42:27.473Z,1005.31
2023-04-26T04:43:27.437Z,1005.31
2023-04-26T04:44:27.467Z,1005.33
2023-04-26T04:45:27.416Z,1005.33
2023-04-26T04:46:27.439Z,1005.34
2023-04-26T04:47:27.447Z,1005.34
2023-04-26T04:48:27.418Z,1005.35
2023-04-26T04:49:27.375Z,1005.36
2023-04-26T04:50:27.353Z,1005.36
2023-04-26T04:51:27.365Z,1005.36
2023-04-26T04:52:27.346Z,1005.38
2023-04-26T04:53:27.350Z,1005.40
2023-04-26T04:54:27.400Z,1005.40
2023-04-26T04:55:27.616Z,1005.41
2023-04-26T04:56:27.307Z,1005.42
2023-04-26T04:57:27.302Z,1005.42
2023-04-26T04:58:27.283Z,1005.43
2023-04-26T04:59:28.072Z,1005.45
2023-04-26T05:00:27.287Z,1005.45
2023-04-26T05:01:27.310Z,1005.45
2023-04-26T05:02:27.359Z,1005.45
2023-04-26T05:03:27.361Z,1005.45
2023-04-26T05:04:27.538Z,1005.44
2023-04-26T05:05:27.240Z,1005.44
2023-04-26T05:06:27.213Z,1005.43
2023-04-26T05:07:28.999Z,1005.41
2023-04-26T05:08:27.172Z,1005.40
2023-04-26T05:09:27.205Z,1005.40
2023-04-26T05:10:27.180Z,1005.39
2023-04-26T05:11:27.204Z,1005.40
2023-04-26T05:12:27.216Z,1005.41
2023-04-26T05:13:27.117Z,1005.43
2023-04-26T05:14:27.145Z,1005.45
2023-04-26T05:15:27.145Z,1005.46
2023-04-26T05:16:27.200Z,1005.47
2023-04-26T05:17:27.135Z,1005.49
2023-04-26T05:18:27.121Z,1005.51
2023-04-26T05:19:27.059Z,1005.50
2023-04-26T05:20:27.117Z,1005.52
2023-04-26T05:21:27.134Z,1005.53
2023-04-26T05:22:27.112Z,1005.54
2023-04-26T05:23:27.042Z,1005.54
2023-04-26T05:24:27.060Z,1005.55
2023-04-26T05:25:27.106Z,1005.55
2023-04-26T05:26:27.049Z,1005.54
2023-04-26T05:27:26.989Z,1005.55
2023-04-26T05:28:27.000Z,1005.56
2023-04-26T05:29:27.031Z,1005.58
2023-04-26T05:30:26.972Z,1005.59
2023-04-26T05:31:27.013Z,1005.59
2023-04-26T05:32:26.937Z,1005.60
2023-04-26T05:33:26.944Z,1005.61
2023-04-26T05:34:26.943Z,1005.61
2023-04-26T05:35:26.941Z,1005.61
2023-04-26T05:36:29.682Z,1005.60
2023-04-26T05:37:26.890Z,1005.60
2023-04-26T05:38:26.897Z,1005.61
2023-04-26T05:39:26.868Z,1005.61
2023-04-26T05:40:26.868Z,1005.62
2023-04-26T05:41:26.839Z,1005.62
2023-04-26T05:42:26.883Z,1005.63
2023-04-26T05:43:26.821Z,1005.65
2023-04-26T05:44:26.827Z,1005.65
2023-04-26T05:45:26.815Z,1005.67
2023-04-26T05:46:26.966Z,1005.68
2023-04-26T05:47:26.829Z,1005.70
2023-04-26T05:48:26.987Z,1005.71
2023-04-26T05:49:26.776Z,1005.71
2023-04-26T05:50:26.756Z,1005.72
2023-04-26T05:51:26.737Z,1005.73
2023-04-26T05:52:26.751Z,1005.75
2023-04-26T05:53:26.816Z,1005.76
2023-04-26T05:54:26.735Z,1005.78
2023-04-26T05:55:26.762Z,1005.79
2023-04-26T05:56:26.709Z,1005.80
2023-04-26T05:57:26.734Z,1005.81
2023-04-26T05:58:26.710Z,1005.81
2023-04-26T05:59:26.663Z,1005.82
2023-04-26T06:00:26.671Z,1005.83
2023-04-26T06:01:26.635Z,1005.85
2023-04-26T06:02:26.819Z,1005.86
2023-04-26T06:03:26.745Z,1005.86
2023-04-26T06:04:26.797Z,1005.86
2023-04-26T06:05:26.705Z,1005.87
2023-04-26T06:06:26.591Z,1005.88
2023-04-26T06:07:26.590Z,1005.89
2023-04-26T06:08:26.591Z,1005.91
2023-04-26T06:09:26.545Z,1005.91
2023-04-26T06:10:26.596Z,1005.91
2023-04-26T06:11:26.527Z,1005.91
2023-04-26T06:12:26.564Z,1005.92
2023-04-26T06:13:26.518Z,1005.93
2023-04-26T06:14:30.492Z,1005.92
2023-04-26T06:15:26.503Z,1005.91
2023-04-26T06:16:26.513Z,1005.91
2023-04-26T06:17:26.509Z,1005.91
2023-04-26T06:18:26.537Z,1005.91
2023-04-26T06:19:26.446Z,1005.92
2023-04-26T06:20:26.496Z,1005.93
2023-04-26T06:21:26.441Z,1005.95
2023-04-26T06:22:26.442Z,1005.94
2023-04-26T06:23:26.452Z,1005.93
2023-04-26T06:24:26.422Z,1005.93
2023-04-26T06:25:26.482Z,1005.94
2023-04-26T06:26:26.432Z,1005.95
2023-04-26T06:27:26.471Z,1005.96
2023-04-26T06:28:26.416Z,1005.97
2023-04-26T06:29:26.373Z,1005.97
2023-04-26T06:30:26.602Z,1005.99
2023-04-26T06:31:26.521Z,1005.98
2023-04-26T06:32:26.385Z,1005.99
2023-04-26T06:33:26.345Z,1006.01
2023-04-26T06:34:26.503Z,1006.02
2023-04-26T06:35:26.707Z,1006.05
2023-04-26T06:36:26.333Z,1006.06
2023-04-26T06:37:26.426Z,1006.07
2023-04-26T06:38:26.518Z,1006.08
2023-04-26T06:39:26.357Z,1006.09
2023-04-26T06:40:26.278Z,1006.09
2023-04-26T06:41:26.331Z,1006.09
2023-04-26T06:42:26.291Z,1006.10
2023-04-26T06:43:26.279Z,1006.10
2023-04-26T06:44:26.317Z,1006.11
2023-04-26T06:45:26.333Z,1006.10
2023-04-26T06:46:26.419Z,1006.11
2023-04-26T06:47:26.255Z,1006.10
2023-04-26T06:48:26.380Z,1006.11
2023-04-26T06:49:26.188Z,1006.09
2023-04-26T06:50:26.327Z,1006.09
2023-04-26T06:51:26.291Z,1006.10
2023-04-26T06:52:26.401Z,1006.11
2023-04-26T06:53:26.149Z,1006.14
2023-04-26T06:54:26.156Z,1006.13
2023-04-26T06:55:26.099Z,1006.14
2023-04-26T06:56:26.105Z,1006.15
2023-04-26T06:57:26.076Z,1006.15
2023-04-26T06:58:26.089Z,1006.14
2023-04-26T06:59:26.060Z,1006.13
2023-04-26T07:00:26.060Z,1006.15
2023-04-26T07:01:26.073Z,1006.15
2023-04-26T07:02:26.224Z,1006.17
2023-04-26T07:03:26.212Z,1006.17
2023-04-26T07:04:26.158Z,1006.16
2023-04-26T07:05:26.079Z,1006.17
2023-04-26T07:06:26.058Z,1006.17
2023-04-26T07:07:25.973Z,1006.19
2023-04-26T07:08:25.997Z,1006.19
2023-04-26T07:09:25.934Z,1006.19
2023-04-26T07:10:26.153Z,1006.17
2023-04-26T07:11:26.324Z,1006.17
2023-04-26T07:12:25.920Z,1006.17
2023-04-26T07:13:25.904Z,1006.17
2023-04-26T07:14:25.923Z,1006.18
2023-04-26T07:15:25.890Z,1006.19
2023-04-26T07:16:25.961Z,1006.20
2023-04-26T07:17:25.879Z,1006.17
2023-04-26T07:18:25.934Z,1006.18
2023-04-26T07:19:25.890Z,1006.15
2023-04-26T07:20:25.960Z,1006.15
2023-04-26T07:21:26.081Z,1006.12
2023-04-26T07:22:25.842Z,1006.11
2023-04-26T07:23:25.812Z,1006.10
2023-04-26T07:24:25.808Z,1006.10
2023-04-26T07:25:25.793Z,1006.13
2023-04-26T07:26:25.782Z,1006.12
2023-04-26T07:27:25.761Z,1006.13
2023-04-26T07:28:25.870Z,1006.12
2023-04-26T07:29:25.765Z,1006.13
2023-04-26T07:30:25.912Z,1006.15
2023-04-26T07:31:25.719Z,1006.17
2023-04-26T07:32:25.784Z,1006.18
2023-04-26T07:33:25.846Z,1006.18
2023-04-26T07:34:25.708Z,1006.19
2023-04-26T07:35:25.696Z,1006.18
2023-04-26T07:36:25.683Z,1006.16
2023-04-26T07:37:25.649Z,1006.16
2023-04-26T07:38:25.660Z,1006.16
2023-04-26T07:39:25.669Z,1006.20
2023-04-26T07:40:25.748Z,1006.21
2023-04-26T07:41:25.634Z,1006.21
2023-04-26T07:42:25.608Z,1006.23
2023-04-26T07:43:25.610Z,1006.23
2023-04-26T07:44:25.672Z,1006.23
2023-04-26T07:45:25.623Z,1006.24
2023-04-26T07:46:25.620Z,1006.25
2023-04-26T07:47:25.616Z,1006.25
2023-04-26T07:48:25.559Z,1006.27
2023-04-26T07:49:25.531Z,1006.27
2023-04-26T07:50:25.582Z,1006.29
2023-04-26T07:51:25.525Z,1006.29
2023-04-26T07:52:25.501Z,1006.29
2023-04-26T07:53:25.518Z,1006.30
2023-04-26T07:54:25.506Z,1006.29
2023-04-26T07:55:25.520Z,1006.28
2023-04-26T07:56:25.460Z,1006.30
2023-04-26T07:57:25.460Z,1006.31
2023-04-26T07:58:25.450Z,1006.29
2023-04-26T07:59:25.432Z,1006.29
2023-04-26T08:00:25.468Z,1006.30
2023-04-26T08:01:25.413Z,1006.31
2023-04-26T08:02:36.809Z,1006.30
2023-04-26T08:03:25.533Z,1006.29
2023-04-26T08:04:25.428Z,1006.28
2023-04-26T08:05:25.676Z,1006.28
2023-04-26T08:06:25.458Z,1006.28
2023-04-26T08:07:25.341Z,1006.28
2023-04-26T08:08:25.349Z,1006.29
2023-04-26T08:09:25.316Z,1006.25
2023-04-26T08:10:25.325Z,1006.26
2023-04-26T08:11:25.353Z,1006.27
2023-04-26T08:12:25.285Z,1006.28
2023-04-26T08:13:28.559Z,1006.25
2023-04-26T08:14:25.300Z,1006.26
2023-04-26T08:15:25.283Z,1006.25
2023-04-26T08:16:25.294Z,1006.21
2023-04-26T08:17:25.303Z,1006.20
2023-04-26T08:18:25.251Z,1006.20
2023-04-26T08:19:25.222Z,1006.18
2023-04-26T08:20:25.216Z,1006.17
2023-04-26T08:21:25.213Z,1006.19
2023-04-26T08:22:25.241Z,1006.19
2023-04-26T08:23:25.186Z,1006.19
2023-04-26T08:24:25.195Z,1006.19
2023-04-26T08:25:25.169Z,1006.18
2023-04-26T08:26:25.165Z,1006.19
2023-04-26T08:27:25.136Z,1006.20
2023-04-26T08:28:25.120Z,1006.17
2023-04-26T08:29:25.111Z,1006.16
2023-04-26T08:30:25.102Z,1006.16
2023-04-26T08:31:25.202Z,1006.16
2023-04-26T08:32:25.107Z,1006.16
2023-04-26T08:33:25.096Z,1006.14
2023-04-26T08:34:25.081Z,1006.14
2023-04-26T08:35:25.050Z,1006.15
2023-04-26T08:36:25.034Z,1006.17
2023-04-26T08:37:25.153Z,1006.18
2023-04-26T08:38:25.169Z,1006.17
2023-04-26T08:39:25.056Z,1006.19
2023-04-26T08:40:25.022Z,1006.21
2023-04-26T08:41:24.984Z,1006.20
2023-04-26T08:42:24.967Z,1006.21
2023-04-26T08:43:24.981Z,1006.20
2023-04-26T08:44:24.947Z,1006.22
2023-04-26T08:45:24.991Z,1006.21
2023-04-26T08:46:25.007Z,1006.22
2023-04-26T08:47:24.935Z,1006.21
2023-04-26T08:48:24.902Z,1006.21
2023-04-26T08:49:24.937Z,1006.22
2023-04-26T08:50:24.924Z,1006.22
2023-04-26T08:51:24.879Z,1006.25
2023-04-26T08:52:24.875Z,1006.24
2023-04-26T08:53:24.863Z,1006.26
2023-04-26T08:54:24.879Z,1006.25
2023-04-26T08:55:24.869Z,1006.26
2023-04-26T08:56:24.807Z,1006.27
2023-04-26T08:57:24.851Z,1006.26
2023-04-26T08:58:24.805Z,1006.28
2023-04-26T08:59:24.811Z,1006.29
2023-04-26T09:00:24.813Z,1006.29
2023-04-26T09:01:24.896Z,1006.30
2023-04-26T09:02:24.935Z,1006.29
2023-04-26T09:03:24.872Z,1006.31
2023-04-26T09:04:25.011Z,1006.31
2023-04-26T09:05:25.021Z,1006.31
2023-04-26T09:06:24.728Z,1006.33
2023-04-26T09:07:24.719Z,1006.34
2023-04-26T09:08:24.708Z,1006.34
2023-04-26T09:09:24.696Z,1006.36
2023-04-26T09:10:24.710Z,1006.36
2023-04-26T09:11:24.701Z,1006.36
2023-04-26T09:12:24.645Z,1006.37
2023-04-26T09:13:24.649Z,1006.36
2023-04-26T09:14:24.626Z,1006.35
2023-04-26T09:15:24.657Z,1006.37
2023-04-26T09:16:24.956Z,1006.36
2023-04-26T09:17:24.658Z,1006.35
2023-04-26T09:18:24.683Z,1006.34
2023-04-26T09:19:24.592Z,1006.34
2023-04-26T09:20:24.575Z,1006.32
2023-04-26T09:21:24.588Z,1006.31
2023-04-26T09:22:24.558Z,1006.31
2023-04-26T09:23:24.623Z,1006.31
2023-04-26T09:24:24.646Z,1006.32
2023-04-26T09:25:24.561Z,1006.32
2023-04-26T09:26:24.587Z,1006.35
2023-04-26T09:27:24.544Z,1006.35
2023-04-26T09:28:24.564Z,1006.37
2023-04-26T09:29:24.528Z,1006.37
2023-04-26T09:30:24.501Z,1006.37
2023-04-26T09:31:24.526Z,1006.38
2023-04-26T09:32:24.577Z,1006.39
2023-04-26T09:33:24.776Z,1006.38
2023-04-26T09:34:24.489Z,1006.37
2023-04-26T09:35:24.649Z,1006.37
2023-04-26T09:36:24.528Z,1006.35
2023-04-26T09:37:24.507Z,1006.35
2023-04-26T09:38:24.398Z,1006.35
2023-04-26T09:39:24.431Z,1006.36
2023-04-26T09:40:24.472Z,1006.35
2023-04-26T09:41:24.389Z,1006.36
2023-04-26T09:42:24.389Z,1006.35
2023-04-26T09:43:24.336Z,1006.33
2023-04-26T09:44:24.326Z,1006.33
2023-04-26T09:45:24.326Z,1006.32
2023-04-26T09:46:24.320Z,1006.31
2023-04-26T09:47:24.349Z,1006.29
2023-04-26T09:48:24.265Z,1006.26
2023-04-26T09:49:24.273Z,1006.27
2023-04-26T09:50:24.308Z,1006.25
2023-04-26T09:51:24.277Z,1006.26
2023-04-26T09:52:24.254Z,1006.25
2023-04-26T09:53:24.351Z,1006.25
2023-04-26T09:54:24.256Z,1006.27
2023-04-26T09:55:34.087Z,1006.23
2023-04-26T09:56:24.198Z,1006.24
2023-04-26T09:57:24.213Z,1006.22
2023-04-26T09:58:24.197Z,1006.26
2023-04-26T09:59:24.163Z,1006.21
2023-04-26T10:00:24.150Z,1006.22
2023-04-26T10:01:24.202Z,1006.20
2023-04-26T10:02:24.255Z,1006.23
2023-04-26T10:03:24.309Z,1006.19
2023-04-26T10:04:24.151Z,1006.16
2023-04-26T10:05:24.114Z,1006.16
2023-04-26T10:06:24.094Z,1006.16
2023-04-26T10:07:24.083Z,1006.17
2023-04-26T10:08:24.153Z,1006.13
2023-04-26T10:09:24.081Z,1006.15
2023-04-26T10:10:24.053Z,1006.11
2023-04-26T10:11:24.049Z,1006.11
2023-04-26T10:12:24.025Z,1006.12
2023-04-26T10:13:24.069Z,1006.14
2023-04-26T10:14:24.105Z,1006.13
2023-04-26T10:15:24.422Z,1006.09
2023-04-26T10:16:24.049Z,1006.10
2023-04-26T10:17:24.043Z,1006.15
2023-04-26T10:18:23.977Z,1006.12
2023-04-26T10:19:23.986Z,1006.13
2023-04-26T10:20:23.951Z,1006.11
2023-04-26T10:21:23.924Z,1006.16
2023-04-26T10:22:23.912Z,1006.14
2023-04-26T10:23:24.054Z,1006.15
2023-04-26T10:24:23.986Z,1006.15
2023-04-26T10:25:23.898Z,1006.12
2023-04-26T10:26:23.909Z,1006.12
2023-04-26T10:27:23.883Z,1006.11
2023-04-26T10:28:23.848Z,1006.10
2023-04-26T10:29:23.853Z,1006.10
2023-04-26T10:30:23.847Z,1006.07
2023-04-26T10:31:23.936Z,1006.07
2023-04-26T10:32:23.860Z,1006.06
2023-04-26T10:33:24.003Z,1006.06
2023-04-26T10:34:23.842Z,1006.05
2023-04-26T10:35:23.792Z,1006.07
2023-04-26T10:36:23.790Z,1006.05
2023-04-26T10:37:23.788Z,1006.05
2023-04-26T10:38:23.774Z,1006.05
2023-04-26T10:39:23.766Z,1006.05
2023-04-26T10:40:23.750Z,1006.04
2023-04-26T10:41:23.754Z,1006.03
2023-04-26T10:42:24.761Z,1006.04
2023-04-26T10:43:24.354Z,1006.03
2023-04-26T10:44:23.723Z,1006.04
2023-04-26T10:45:23.697Z,1006.04
2023-04-26T10:46:23.689Z,1006.05
2023-04-26T10:47:23.698Z,1006.05
2023-04-26T10:48:23.691Z,1006.03
2023-04-26T10:49:26.280Z,1006.04
2023-04-26T10:50:23.641Z,1006.06
2023-04-26T10:51:23.655Z,1006.05
2023-04-26T10:52:23.624Z,1006.03
2023-04-26T10:53:23.613Z,1006.01
2023-04-26T10:54:23.595Z,1006.02
2023-04-26T10:55:24.989Z,1006.00
2023-04-26T10:56:23.566Z,1005.98
2023-04-26T10:57:23.585Z,1005.97
2023-04-26T10:58:23.553Z,1005.96
2023-04-26T10:59:39.681Z,1005.97
2023-04-26T11:00:23.565Z,1005.96
2023-04-26T11:01:23.553Z,1005.96
2023-04-26T11:02:23.616Z,1005.97
2023-04-26T11:03:23.703Z,1005.96
2023-04-26T11:04:23.625Z,1005.95
2023-04-26T11:05:25.377Z,1005.95
2023-04-26T11:06:23.492Z,1005.95
2023-04-26T11:07:23.456Z,1005.94
2023-04-26T11:08:23.456Z,1005.95
2023-04-26T11:09:23.436Z,1005.97
2023-04-26T11:10:23.445Z,1005.98
2023-04-26T11:11:23.411Z,1005.98
2023-04-26T11:12:23.439Z,1005.97
2023-04-26T11:13:23.416Z,1005.97
2023-04-26T11:14:23.392Z,1005.96
2023-04-26T11:15:23.396Z,1005.95
2023-04-26T11:16:23.400Z,1005.96
2023-04-26T11:17:23.382Z,1005.95
2023-04-26T11:18:23.372Z,1005.94
2023-04-26T11:19:23.404Z,1005.94
2023-04-26T11:20:23.313Z,1005.94
2023-04-26T11:21:23.341Z,1005.95
2023-04-26T11:22:23.301Z,1005.97
2023-04-26T11:23:23.307Z,1005.96
2023-04-26T11:24:23.286Z,1005.97
2023-04-26T11:25:23.448Z,1005.97
2023-04-26T11:26:23.263Z,1005.98
2023-04-26T11:27:23.263Z,1005.97
2023-04-26T11:28:23.234Z,1005.99
2023-04-26T11:29:23.264Z,1005.99
2023-04-26T11:30:23.213Z,1006.00
2023-04-26T11:31:23.235Z,1006.03
2023-04-26T11:32:23.244Z,1006.03
2023-04-26T11:33:23.181Z,1006.04
2023-04-26T11:34:23.181Z,1006.06
2023-04-26T11:35:23.219Z,1006.06
2023-04-26T11:36:23.151Z,1006.06
2023-04-26T11:37:23.166Z,1006.09
2023-04-26T11:38:23.127Z,1006.07
2023-04-26T11:39:23.123Z,1006.08
2023-04-26T11:40:23.146Z,1006.10
2023-04-26T11:41:23.097Z,1006.11
2023-04-26T11:42:23.204Z,1006.13
2023-04-26T11:43:23.120Z,1006.14
2023-04-26T11:44:23.060Z,1006.14
2023-04-26T11:45:23.089Z,1006.16
2023-04-26T11:46:23.045Z,1006.16
2023-04-26T11:47:23.049Z,1006.17
2023-04-26T11:48:23.101Z,1006.16
2023-04-26T11:49:23.019Z,1006.18
2023-04-26T11:50:23.017Z,1006.18
2023-04-26T11:51:23.024Z,1006.18
2023-04-26T11:52:22.975Z,1006.19
2023-04-26T11:53:23.006Z,1006.19
2023-04-26T11:54:22.960Z,1006.19
2023-04-26T11:55:22.973Z,1006.18
2023-04-26T11:56:22.983Z,1006.19
2023-04-26T11:57:22.942Z,1006.18
2023-04-26T11:58:22.932Z,1006.19
2023-04-26T11:59:23.001Z,1006.20
2023-04-26T12:00:22.921Z,1006.19
2023-04-26T12:01:22.914Z,1006.19
2023-04-26T12:02:23.029Z,1006.19
2023-04-26T12:03:23.015Z,1006.19
2023-04-26T12:04:22.913Z,1006.20
2023-04-26T12:05:22.910Z,1006.20